createdAt,value
2019-05-07T00:01:56.960Z,4.23
2019-05-07T00:04:33.025Z,4.23
2019-05-07T00:10:42.985Z,3.50
2019-05-07T00:13:16.570Z,4.20
2019-05-07T00:15:52.637Z,4.20
2019-05-07T00:18:25.514Z,4.20
2019-05-07T00:20:59.105Z,4.47
2019-05-07T00:23:32.756Z,4.40
2019-05-07T00:26:06.386Z,4.70
2019-05-07T00:28:39.984Z,4.17
2019-05-07T00:31:13.624Z,3.73
2019-05-07T00:33:47.396Z,4.13
2019-05-07T00:36:25.418Z,4.10
2019-05-07T00:39:03.620Z,4.50
2019-05-07T00:41:38.808Z,3.80
2019-05-07T00:44:13.790Z,3.70
2019-05-07T00:46:47.542Z,3.83
2019-05-07T00:49:22.804Z,3.67
2019-05-07T00:51:56.386Z,3.90
2019-05-07T00:54:32.382Z,3.87
2019-05-07T00:57:05.337Z,3.77
2019-05-07T00:59:38.943Z,4.30
2019-05-07T01:02:12.829Z,4.47
2019-05-07T01:04:46.522Z,3.83
2019-05-07T01:07:20.186Z,4.00
2019-05-07T01:09:53.786Z,4.47
2019-05-07T01:12:27.412Z,3.70
2019-05-07T01:15:02.912Z,3.80
2019-05-07T01:17:36.469Z,3.53
2019-05-07T01:23:56.528Z,3.87
2019-05-07T01:26:30.114Z,4.10
2019-05-07T01:29:03.905Z,4.93
2019-05-07T01:31:40.184Z,4.10
2019-05-07T01:34:24.572Z,3.80
2019-05-07T01:40:35.566Z,3.83
2019-05-07T01:43:09.282Z,4.10
2019-05-07T01:45:49.451Z,4.07
2019-05-07T01:48:22.995Z,4.20
2019-05-07T01:50:56.966Z,3.77
2019-05-07T01:53:32.340Z,3.43
2019-05-07T01:56:05.842Z,3.97
2019-05-07T01:58:39.414Z,3.80
2019-05-07T02:01:13.263Z,3.33
2019-05-07T02:03:52.784Z,3.80
2019-05-07T02:06:37.370Z,4.00
2019-05-07T02:09:29.196Z,3.33
2019-05-07T02:12:04.488Z,3.53
2019-05-07T02:14:38.155Z,3.20
2019-05-07T02:17:13.604Z,3.70
2019-05-07T02:19:47.150Z,3.97
2019-05-07T02:22:22.693Z,4.47
2019-05-07T02:24:56.194Z,4.07
2019-05-07T02:27:29.903Z,3.70
2019-05-07T02:30:04.705Z,4.23
2019-05-07T02:32:38.339Z,3.67
2019-05-07T02:39:03.759Z,3.40
2019-05-07T02:41:37.814Z,3.50
2019-05-07T02:44:14.090Z,3.63
2019-05-07T02:47:04.210Z,3.97
2019-05-07T02:49:45.483Z,3.60
2019-05-07T02:56:06.007Z,2.70
2019-05-07T02:58:39.597Z,3.57
2019-05-07T03:01:14.015Z,4.07
2019-05-07T03:03:47.873Z,3.67
2019-05-07T03:06:23.492Z,3.40
2019-05-07T03:08:57.207Z,3.83
2019-05-07T03:11:33.898Z,3.33
2019-05-07T03:14:06.452Z,4.40
2019-05-07T03:16:45.461Z,3.97
2019-05-07T03:19:16.402Z,3.87
2019-05-07T03:21:53.834Z,4.10
2019-05-07T03:24:45.013Z,3.50
2019-05-07T03:27:18.588Z,3.13
2019-05-07T03:29:53.924Z,3.70
2019-05-07T03:32:40.107Z,3.57
2019-05-07T03:35:16.495Z,3.50
2019-05-07T03:37:54.309Z,3.93
2019-05-07T03:40:26.748Z,3.20
2019-05-07T03:43:04.863Z,3.43
2019-05-07T03:45:42.976Z,4.03
2019-05-07T03:48:17.367Z,3.60
2019-05-07T03:54:36.911Z,3.83
2019-05-07T03:57:14.735Z,2.90
2019-05-07T03:59:45.914Z,3.40
2019-05-07T04:02:23.909Z,3.30
2019-05-07T04:04:57.422Z,3.27
2019-05-07T04:11:08.058Z,3.27
2019-05-07T04:13:44.131Z,3.17
2019-05-07T04:16:17.054Z,3.50
2019-05-07T04:18:53.018Z,3.33
2019-05-07T04:21:26.003Z,3.20
2019-05-07T04:24:19.376Z,3.50
2019-05-07T04:26:57.337Z,5.03
2019-05-07T04:29:30.908Z,4.43
2019-05-07T04:32:04.706Z,4.00
2019-05-07T04:34:45.640Z,3.03
2019-05-07T04:37:19.253Z,3.07
2019-05-07T04:39:53.854Z,3.50
2019-05-07T04:42:27.750Z,3.07
2019-05-07T04:45:04.254Z,3.40
2019-05-07T04:47:43.132Z,3.20
2019-05-07T04:50:14.145Z,3.20
2019-05-07T04:52:49.760Z,3.37
2019-05-07T04:55:23.362Z,2.83
2019-05-07T04:57:57.031Z,3.30
2019-05-07T05:00:33.361Z,2.63
2019-05-07T05:03:16.343Z,2.70
2019-05-07T05:09:35.847Z,4.40
2019-05-07T05:12:09.486Z,3.50
2019-05-07T05:14:43.577Z,3.57
2019-05-07T05:17:17.697Z,2.97
2019-05-07T05:19:52.534Z,3.87
2019-05-07T05:26:12.666Z,3.17
2019-05-07T05:28:46.250Z,3.50
2019-05-07T05:31:22.132Z,3.77
2019-05-07T05:33:55.259Z,3.53
2019-05-07T05:36:28.901Z,2.70
2019-05-07T05:39:02.703Z,2.50
2019-05-07T05:41:38.134Z,2.60
2019-05-07T05:44:13.365Z,2.27
2019-05-07T05:46:46.999Z,2.20
2019-05-07T05:49:22.792Z,1.93
2019-05-07T05:52:09.719Z,1.90
2019-05-07T05:54:47.721Z,2.30
2019-05-07T05:57:23.165Z,1.80
2019-05-07T05:59:58.518Z,2.00
2019-05-07T06:02:36.264Z,1.90
2019-05-07T06:05:28.440Z,1.73
2019-05-07T06:08:06.421Z,1.83
2019-05-07T06:10:42.443Z,1.60
2019-05-07T06:13:37.771Z,1.83
2019-05-07T06:16:16.380Z,1.43
2019-05-07T06:18:54.581Z,1.83
2019-05-07T06:25:18.983Z,1.50
2019-05-07T06:27:52.698Z,2.80
2019-05-07T06:30:26.526Z,1.67
2019-05-07T06:33:00.047Z,1.73
2019-05-07T06:35:33.710Z,1.67
2019-05-07T06:41:55.235Z,1.37
2019-05-07T06:44:28.932Z,1.63
2019-05-07T06:47:02.854Z,1.50
2019-05-07T06:49:36.434Z,1.40
2019-05-07T06:52:12.124Z,1.30
2019-05-07T06:54:45.962Z,1.57
2019-05-07T06:57:19.661Z,1.50
2019-05-07T07:00:02.675Z,1.45
2019-05-07T07:02:43.775Z,1.40
2019-05-07T07:05:34.373Z,1.37
2019-05-07T07:08:09.824Z,1.10
2019-05-07T07:11:02.657Z,1.25
2019-05-07T07:13:36.626Z,1.50
2019-05-07T07:16:12.543Z,1.20
2019-05-07T07:18:52.104Z,1.05
2019-05-07T07:24:59.541Z,0.98
2019-05-07T07:27:33.256Z,1.30
2019-05-07T07:30:12.895Z,1.23
2019-05-07T07:32:48.136Z,1.10
2019-05-07T07:35:22.582Z,1.20
2019-05-07T07:41:49.640Z,1.40
2019-05-07T07:44:23.361Z,1.03
2019-05-07T07:46:57.134Z,1.30
2019-05-07T07:49:32.317Z,1.60
2019-05-07T07:52:05.997Z,1.40
2019-05-07T07:54:39.608Z,1.13
2019-05-07T07:57:14.968Z,1.37
2019-05-07T07:59:50.230Z,0.97
2019-05-07T08:02:27.961Z,1.30
2019-05-07T08:05:02.184Z,1.13
2019-05-07T08:07:36.051Z,1.80
2019-05-07T08:10:10.135Z,1.50
2019-05-07T08:12:43.866Z,1.50
2019-05-07T08:15:23.716Z,1.37
2019-05-07T08:17:54.763Z,1.50
2019-05-07T08:20:32.426Z,1.33
2019-05-07T08:23:05.594Z,1.73
2019-05-07T08:25:48.099Z,1.53
2019-05-07T08:28:23.110Z,1.97
2019-05-07T08:30:58.814Z,0.93
2019-05-07T08:33:34.191Z,1.13
2019-05-07T08:36:11.957Z,1.17
2019-05-07T08:38:52.979Z,0.80
2019-05-07T08:41:28.142Z,1.40
2019-05-07T08:44:11.559Z,1.07
2019-05-07T08:46:49.177Z,1.07
2019-05-07T08:49:35.589Z,1.30
2019-05-07T08:55:45.223Z,0.77
2019-05-07T08:58:19.097Z,1.17
2019-05-07T09:00:52.887Z,0.93
2019-05-07T09:03:44.485Z,1.23
2019-05-07T09:06:21.985Z,1.13
2019-05-07T09:12:42.923Z,1.00
2019-05-07T09:15:16.539Z,1.03
2019-05-07T09:17:52.701Z,1.20
2019-05-07T09:20:26.689Z,0.87
2019-05-07T09:23:02.124Z,1.00
2019-05-07T09:25:37.412Z,0.93
2019-05-07T09:28:12.095Z,1.32
2019-05-07T09:30:53.223Z,1.00
2019-05-07T09:33:32.091Z,1.37
2019-05-07T09:36:07.527Z,1.10
2019-05-07T09:38:41.853Z,1.20
2019-05-07T09:41:29.153Z,1.43
2019-05-07T09:44:03.210Z,1.10
2019-05-07T09:46:37.002Z,1.30
2019-05-07T09:49:12.009Z,1.40
2019-05-07T09:51:45.896Z,1.40
2019-05-07T09:54:19.634Z,1.33
2019-05-07T09:56:53.369Z,1.00
2019-05-07T09:59:27.089Z,1.33
2019-05-07T10:02:01.851Z,1.87
2019-05-07T10:04:35.720Z,1.03
2019-05-07T10:10:50.640Z,1.60
2019-05-07T10:13:34.658Z,1.43
2019-05-07T10:16:08.396Z,1.60
2019-05-07T10:18:42.695Z,1.30
2019-05-07T10:21:17.507Z,1.50
2019-05-07T10:27:32.658Z,1.60
2019-05-07T10:30:06.806Z,1.20
2019-05-07T10:32:42.150Z,1.47
2019-05-07T10:35:17.472Z,1.27
2019-05-07T10:37:52.762Z,1.23
2019-05-07T10:40:27.286Z,1.20
2019-05-07T10:43:01.026Z,1.00
2019-05-07T10:45:45.200Z,1.20
2019-05-07T10:48:22.039Z,1.20
2019-05-07T10:51:03.410Z,1.50
2019-05-07T10:53:37.070Z,1.10
2019-05-07T10:56:11.865Z,1.73
2019-05-07T10:58:45.874Z,1.60
2019-05-07T11:01:22.441Z,1.30
2019-05-07T11:03:56.192Z,1.57
2019-05-07T11:06:29.844Z,1.03
2019-05-07T11:09:04.555Z,1.13
2019-05-07T11:11:38.394Z,1.53
2019-05-07T11:14:12.405Z,1.90
2019-05-07T11:16:56.934Z,1.87
2019-05-07T11:19:32.423Z,2.30
2019-05-07T11:22:06.048Z,1.60
2019-05-07T11:24:39.642Z,1.30
2019-05-07T11:27:13.261Z,1.50
2019-05-07T11:29:47.272Z,1.53
2019-05-07T11:32:21.649Z,2.23
2019-05-07T11:34:56.511Z,2.30
2019-05-07T11:41:07.722Z,1.80
2019-05-07T11:43:48.781Z,1.97
2019-05-07T11:46:36.063Z,1.50
2019-05-07T11:49:23.194Z,1.23
2019-05-07T11:51:58.563Z,1.50
2019-05-07T11:58:18.432Z,1.53
2019-05-07T12:00:54.114Z,1.90
2019-05-07T12:03:28.275Z,2.10
2019-05-07T12:06:02.200Z,2.17
2019-05-07T12:08:43.006Z,1.60
2019-05-07T12:11:11.957Z,1.40
2019-05-07T12:13:45.681Z,1.57
2019-05-07T12:16:19.279Z,1.67
2019-05-07T12:18:55.450Z,1.50
2019-05-07T12:21:28.413Z,1.60
2019-05-07T12:24:02.314Z,2.03
2019-05-07T12:26:37.714Z,1.80
2019-05-07T12:29:11.945Z,1.70
2019-05-07T12:32:02.714Z,1.33
2019-05-07T12:34:42.365Z,1.60
2019-05-07T12:37:16.206Z,1.73
2019-05-07T12:39:49.829Z,2.57
2019-05-07T12:42:23.394Z,2.67
2019-05-07T12:44:57.197Z,1.57
2019-05-07T12:47:30.929Z,1.70
2019-05-07T12:50:04.967Z,1.73
2019-05-07T12:56:15.203Z,1.63
2019-05-07T12:58:49.167Z,1.60
2019-05-07T13:01:27.334Z,2.00
2019-05-07T13:04:08.596Z,1.47
2019-05-07T13:06:46.651Z,1.40
2019-05-07T13:13:06.384Z,1.40
2019-05-07T13:15:43.048Z,1.23
2019-05-07T13:18:15.223Z,1.03
2019-05-07T13:20:48.971Z,1.30
2019-05-07T13:23:23.646Z,1.53
2019-05-07T13:25:57.265Z,1.30
2019-05-07T13:28:31.002Z,1.90
2019-05-07T13:31:04.721Z,1.30
2019-05-07T13:33:41.971Z,1.00
2019-05-07T13:36:15.064Z,1.40
2019-05-07T13:38:51.901Z,1.30
2019-05-07T13:41:41.905Z,1.13
2019-05-07T13:44:17.251Z,1.30
2019-05-07T13:46:53.140Z,1.20
2019-05-07T13:49:27.117Z,1.10
2019-05-07T13:52:03.829Z,1.10
2019-05-07T13:54:37.619Z,0.90
2019-05-07T13:57:12.026Z,1.37
2019-05-07T13:59:46.031Z,1.27
2019-05-07T14:02:27.225Z,1.43
2019-05-07T14:05:00.961Z,1.20
2019-05-07T14:07:36.272Z,1.03
2019-05-07T14:10:12.413Z,1.50
2019-05-07T14:12:45.622Z,1.23
2019-05-07T14:15:19.355Z,1.57
2019-05-07T14:17:55.107Z,1.10
2019-05-07T14:20:28.851Z,1.40
2019-05-07T14:26:43.922Z,1.00
2019-05-07T14:29:17.646Z,1.03
2019-05-07T14:31:53.029Z,0.80
2019-05-07T14:34:34.698Z,0.87
2019-05-07T14:37:13.785Z,0.80
2019-05-07T14:43:35.065Z,1.10
2019-05-07T14:46:08.780Z,1.17
2019-05-07T14:48:43.849Z,1.13
2019-05-07T14:51:17.663Z,0.93
2019-05-07T14:53:51.532Z,1.10
2019-05-07T14:56:25.259Z,1.20
2019-05-07T14:58:59.131Z,1.37
2019-05-07T15:01:34.048Z,1.10
2019-05-07T15:04:07.931Z,1.47
2019-05-07T15:06:41.650Z,1.43
2019-05-07T15:09:15.366Z,1.77
2019-05-07T15:11:48.947Z,1.90
2019-05-07T15:14:22.818Z,1.30
2019-05-07T15:16:58.098Z,1.30
2019-05-07T15:19:32.156Z,1.30
2019-05-07T15:22:23.913Z,1.43
2019-05-07T15:24:57.606Z,1.40
2019-05-07T15:27:32.312Z,1.30
2019-05-07T15:30:06.554Z,1.27
2019-05-07T15:32:42.661Z,1.20
2019-05-07T15:35:16.017Z,1.20
2019-05-07T15:37:51.795Z,1.10
2019-05-07T15:40:25.586Z,0.83
2019-05-07T15:42:59.406Z,1.00
2019-05-07T15:45:33.116Z,1.03
2019-05-07T15:48:06.838Z,1.20
2019-05-07T15:50:42.721Z,0.67
2019-05-07T15:56:54.856Z,1.00
2019-05-07T15:59:28.661Z,1.70
2019-05-07T16:02:09.778Z,2.00
2019-05-07T16:04:43.404Z,1.67
2019-05-07T16:07:17.047Z,2.03
2019-05-07T16:13:18.830Z,0.93
2019-05-07T16:15:52.935Z,0.90
2019-05-07T16:18:28.418Z,1.40
2019-05-07T16:21:04.762Z,0.80
2019-05-07T16:23:37.558Z,1.00
2019-05-07T16:26:12.931Z,0.90
2019-05-07T16:28:46.486Z,1.33
2019-05-07T16:31:21.981Z,1.70
2019-05-07T16:33:55.335Z,0.93
2019-05-07T16:36:29.010Z,1.00
2019-05-07T16:39:03.477Z,1.00
2019-05-07T16:41:37.314Z,1.37
2019-05-07T16:44:12.251Z,0.83
2019-05-07T16:46:46.131Z,0.83
2019-05-07T16:49:19.776Z,1.40
2019-05-07T16:51:53.398Z,1.50
2019-05-07T16:54:27.104Z,1.60
2019-05-07T16:57:03.093Z,1.73
2019-05-07T16:59:36.925Z,2.93
2019-05-07T17:02:14.933Z,1.50
2019-05-07T17:05:08.291Z,1.30
2019-05-07T17:07:51.981Z,1.60
2019-05-07T17:10:25.343Z,1.60
2019-05-07T17:12:59.130Z,1.60
2019-05-07T17:15:34.512Z,1.70
2019-05-07T17:18:08.299Z,1.40
2019-05-07T17:20:42.958Z,1.63
2019-05-07T17:23:16.602Z,1.50
2019-05-07T17:25:52.600Z,1.50
2019-05-07T17:28:27.896Z,1.70
2019-05-07T17:31:03.048Z,2.27
2019-05-07T17:33:36.984Z,2.63
2019-05-07T17:36:12.083Z,2.80
2019-05-07T17:42:32.848Z,1.70
2019-05-07T17:45:07.549Z,2.50
2019-05-07T17:47:42.472Z,2.00
2019-05-07T17:50:18.097Z,2.10
2019-05-07T17:52:53.442Z,1.83
2019-05-07T17:59:04.714Z,2.00
2019-05-07T18:01:41.978Z,1.93
2019-05-07T18:04:15.781Z,1.93
2019-05-07T18:06:49.482Z,2.90
2019-05-07T18:09:23.067Z,3.10
2019-05-07T18:11:56.786Z,3.17
2019-05-07T18:14:32.152Z,3.17
2019-05-07T18:17:07.348Z,3.27
2019-05-07T18:19:41.122Z,3.30
2019-05-07T18:22:14.981Z,3.13
2019-05-07T18:24:48.603Z,3.40
2019-05-07T18:27:23.868Z,3.10
2019-05-07T18:29:57.523Z,2.73
2019-05-07T18:32:32.793Z,2.83
2019-05-07T18:35:07.530Z,2.37
2019-05-07T18:37:53.308Z,3.40
2019-05-07T18:40:26.968Z,3.23
2019-05-07T18:43:02.935Z,4.73
2019-05-07T18:45:36.957Z,5.33
2019-05-07T18:48:11.905Z,7.97
2019-05-07T18:50:45.780Z,8.78
2019-05-07T18:53:19.915Z,7.10
2019-05-07T18:55:53.640Z,6.10
2019-05-07T18:58:27.300Z,6.53
2019-05-07T19:01:02.802Z,6.10
2019-05-07T19:03:36.519Z,6.40
2019-05-07T19:06:13.152Z,6.07
2019-05-07T19:08:47.456Z,6.90
2019-05-07T19:11:22.814Z,7.43
2019-05-07T19:13:56.891Z,7.87
2019-05-07T19:16:32.344Z,8.17
2019-05-07T19:19:06.017Z,7.50
2019-05-07T19:21:39.646Z,8.13
2019-05-07T19:27:53.949Z,6.60
2019-05-07T19:30:27.684Z,5.73
2019-05-07T19:33:01.389Z,6.20
2019-05-07T19:35:35.155Z,5.97
2019-05-07T19:38:08.852Z,6.33
2019-05-07T19:44:28.977Z,6.47
2019-05-07T19:47:02.832Z,8.63
2019-05-07T19:49:36.783Z,8.73
2019-05-07T19:52:12.307Z,9.87
2019-05-07T19:54:58.010Z,8.53
2019-05-07T19:57:25.571Z,7.57
2019-05-07T19:59:59.157Z,6.80
2019-05-07T20:02:34.609Z,7.40
2019-05-07T20:05:08.432Z,9.10
2019-05-07T20:07:42.376Z,10.50
2019-05-07T20:10:18.043Z,8.20
2019-05-07T20:12:52.177Z,6.63
2019-05-07T20:15:25.930Z,7.83
2019-05-07T20:17:59.481Z,8.00
2019-05-07T20:20:35.157Z,6.70
2019-05-07T20:23:08.939Z,7.67
2019-05-07T20:25:42.663Z,7.47
2019-05-07T20:28:16.588Z,6.73
2019-05-07T20:30:52.582Z,7.33
2019-05-07T20:33:25.505Z,7.60
2019-05-07T20:35:59.209Z,8.00
2019-05-07T20:38:32.882Z,8.03
2019-05-07T20:41:06.635Z,6.70
2019-05-07T20:43:42.676Z,8.93
2019-05-07T20:46:15.707Z,8.90
2019-05-07T20:48:49.390Z,8.77
2019-05-07T20:51:23.221Z,7.53
2019-05-07T20:54:04.089Z,7.93
2019-05-07T20:56:39.439Z,7.03
2019-05-07T20:59:13.108Z,8.37
2019-05-07T21:01:46.735Z,8.43
2019-05-07T21:04:22.243Z,9.33
2019-05-07T21:06:55.689Z,8.17
2019-05-07T21:12:38.786Z,9.73
2019-05-07T21:15:12.540Z,10.17
2019-05-07T21:17:46.146Z,9.27
2019-05-07T21:20:19.787Z,9.43
2019-05-07T21:22:53.453Z,9.57
2019-05-07T21:28:59.003Z,8.03
2019-05-07T21:31:32.681Z,8.63
2019-05-07T21:34:06.310Z,8.30
2019-05-07T21:36:39.896Z,9.60
2019-05-07T21:39:13.527Z,9.63
2019-05-07T21:45:33.435Z,8.83
2019-05-07T21:48:07.184Z,8.20
2019-05-07T21:50:40.873Z,8.23
2019-05-07T21:53:24.967Z,8.20
2019-05-07T21:56:06.290Z,8.23
2019-05-07T21:58:41.528Z,8.40
2019-05-07T22:01:28.625Z,7.90
2019-05-07T22:04:02.280Z,7.60
2019-05-07T22:06:35.983Z,8.43
2019-05-07T22:09:12.689Z,7.27
2019-05-07T22:11:45.903Z,7.53
2019-05-07T22:14:19.563Z,8.30
2019-05-07T22:16:54.612Z,9.40
2019-05-07T22:19:28.456Z,8.67
2019-05-07T22:22:02.888Z,8.80
2019-05-07T22:24:36.575Z,9.03
2019-05-07T22:27:12.641Z,8.50
2019-05-07T22:29:45.499Z,7.40
2019-05-07T22:32:29.426Z,8.97
2019-05-07T22:35:13.627Z,9.67
2019-05-07T22:37:47.263Z,8.80
2019-05-07T22:44:06.442Z,7.77
2019-05-07T22:46:42.209Z,8.30
2019-05-07T22:49:15.435Z,8.70
2019-05-07T22:51:49.056Z,8.37
2019-05-07T22:54:22.771Z,7.27
2019-05-07T23:00:46.505Z,7.30
2019-05-07T23:03:20.161Z,6.63
2019-05-07T23:05:55.426Z,6.33
2019-05-07T23:08:28.997Z,6.70
2019-05-07T23:11:02.876Z,7.07
2019-05-07T23:13:36.861Z,6.13
2019-05-07T23:16:12.527Z,6.90
2019-05-07T23:18:45.789Z,7.03
2019-05-07T23:21:19.489Z,6.40
2019-05-07T23:23:53.087Z,5.40
2019-05-07T23:26:26.704Z,6.17
2019-05-07T23:29:02.334Z,6.40
2019-05-07T23:31:35.669Z,5.90
2019-05-07T23:34:09.249Z,5.60
2019-05-07T23:36:42.934Z,6.20
2019-05-07T23:39:18.213Z,5.50
2019-05-07T23:42:09.756Z,5.93
2019-05-07T23:44:43.417Z,5.23
2019-05-07T23:47:17.063Z,4.77
2019-05-07T23:49:52.332Z,6.00
2019-05-07T23:52:26.217Z,5.40
2019-05-07T23:54:59.855Z,5.30
2019-05-07T23:57:33.515Z,5.47
